Wild Iris — 2BKM2 — position and weather

sailwx.info

Track history (hours):
 
Tides and Currents Weather Stations Pressure Air Temp Water Temp Dewpoint Dewpoint Depression Visibility Wind Speed Wind Dir Waves Ship Positions

Wild Iris

Last reported at 2017-Nov-05 15:58 UTC. Time now 2017-Nov-20 02:13 UTC.
Position N 27°44' W 015°18'.
Warning: this ship's position is 14 days out of date.

Length 11 m.

Type: Sailing vessel. MMSI: 235066909.

Date/timePositionNaut miles runAvg speedWind from/ knotsBaromVisibWave heightAir tempDewpointWater temp
2017-Nov-05 15:58N 27°44' W 015°18'4 8.5
2017-Nov-05 15:29N 27°48' W 015°17'4 8.6
2017-Nov-05 14:59N 27°53' W 015°17'4 8.1
2017-Nov-05 14:28N 27°57' W 015°18'4 7.9
2017-Nov-05 13:58N 28°00' W 015°20'4 7.6
2017-Nov-05 13:28N 28°04' W 015°22'3 6.7
2017-Nov-05 12:58N 28°06' W 015°24'0 0.6
2017-Nov-05 12:27N 28°06' W 015°24'1 1.8
2017-Nov-05 11:57N 28°06' W 015°23'2 3.9
2017-Nov-05 11:22N 28°07' W 015°25'0 0.0
2017-Nov-04 21:34N 28°08' W 015°26'0 0.0
2017-Nov-04 21:19N 28°08' W 015°26'0 0.0
2017-Nov-04 20:49N 28°08' W 015°26'0 0.0
2017-Nov-02 17:02N 28°08' W 015°26'0 0.0
2017-Nov-02 16:59N 28°08' W 015°26'  
Track history (hours):
 
Tides and Currents Weather Stations Pressure Air Temp Water Temp Dewpoint Dewpoint Depression Visibility Wind Speed Wind Dir Waves Ship Positions

Wild Iris

Last reported at 2017-Nov-05 15:58 UTC. Time now 2017-Nov-20 02:13 UTC.
Position N 27°44' W 015°18'.
Warning: this ship's position is 14 days out of date.

Length 11 m.

Type: Sailing vessel. MMSI: 235066909.

Date/timePositionNaut miles runAvg speedWind from/ knotsBaromVisibWave heightAir tempDewpointWater temp
2017-Nov-05 15:58N 27°44' W 015°18'4 8.5
2017-Nov-05 15:29N 27°48' W 015°17'4 8.6
2017-Nov-05 14:59N 27°53' W 015°17'4 8.1
2017-Nov-05 14:28N 27°57' W 015°18'4 7.9
2017-Nov-05 13:58N 28°00' W 015°20'4 7.6
2017-Nov-05 13:28N 28°04' W 015°22'3 6.7
2017-Nov-05 12:58N 28°06' W 015°24'0 0.6
2017-Nov-05 12:27N 28°06' W 015°24'1 1.8
2017-Nov-05 11:57N 28°06' W 015°23'2 3.9
2017-Nov-05 11:22N 28°07' W 015°25'0 0.0
2017-Nov-04 21:34N 28°08' W 015°26'0 0.0
2017-Nov-04 21:19N 28°08' W 015°26'0 0.0
2017-Nov-04 20:49N 28°08' W 015°26'0 0.0
2017-Nov-02 17:02N 28°08' W 015°26'0 0.0
2017-Nov-02 16:59N 28°08' W 015°26'  

Dump ship's entire track history